Flight Track Log - Related Links

Times and Time Zones

All times are in EDT time to prevent confusion due to time zone crossing. See the PDT4108 flight status page for this flight to view local times or setup timezone preferences in your user account.

Time Position Orientation Groundspeed Altitude Reporting Facility
EDT Latitude Longitude Course Direction KTS MPH feet Rate Location/Type
Sat 04:05:48 PM 39.8833 -75.2000 90° East 118 136 700  Level Philadelphia TRACON
Sat 04:06:42 PM 39.8833 -75.1667 90° East 122 140 2,000 1,250 Climbing Philadelphia TRACON
Sat 04:07:48 PM 39.8833 -75.1167 90° East 135 155 3,200 1,100 Climbing Philadelphia TRACON
Sat 04:08:42 PM 39.9000 -75.0667 67° East 138 159 4,200 1,105 Climbing Philadelphia TRACON
Sat 04:09:42 PM 39.9000 -75.0167 90° East 146 168 5,300 1,048 Climbing Philadelphia TRACON
Sat 04:10:48 PM 39.9000 -74.9500 90° East 159 183 6,400 850 Climbing Philadelphia TRACON
Sat 04:11:00 PM 39.8500 -74.9875 90° East  Level FlightAware Approximate
Sat 04:11:42 PM 39.9167 -74.9167 57° Northeast 164 189 7,000  Level Philadelphia TRACON
Sat 04:12:43 PM 39.9500 -74.8500 57° Northeast 220 253 7,100  Climbing Philadelphia TRACON
Sat 04:13:43 PM 40.0000 -74.7833 46° Northeast 224 258 7,000  Descending Philadelphia TRACON
Sat 04:14:49 PM 40.0500 -74.7167 46° Northeast 229 264 7,100 48 Climbing New York TRACON
Sat 04:15:49 PM 40.0833 -74.6667 49° Northeast 232 267 7,100  Level New York TRACON
Sat 04:16:55 PM 40.1333 -74.6000 46° Northeast 236 272 7,100 -50 Level New York TRACON
Sat 04:17:49 PM 40.1667 -74.5333 57° Northeast 234 269 7,000 -276 Descending New York TRACON
Sat 04:19:49 PM 40.2833 -74.4333 49° Northeast 246 283 6,300 -333 Descending New York TRACON
Sat 04:20:49 PM 40.3333 -74.3833 37° Northeast 236 272 6,000 -1,067 Descending New York TRACON
Sat 04:22:49 PM 40.4167 -74.3167 25° Northeast 190 219 3,100 -1,000 Descending New York TRACON
Sat 04:23:49 PM 40.4667 -74.3000 14° North 175 201 3,000 -50 Descending New York TRACON
Sat 04:24:49 PM 40.5167 -74.2833 14° North 177 204 3,000 -150 Level New York TRACON
Sat 04:25:49 PM 40.5500 -74.2500 37° Northeast 171 197 2,700 -600 Descending New York TRACON
Sat 04:26:49 PM 40.6000 -74.2167 27° Northeast 167 192 1,800 -850 Descending New York TRACON
Sat 04:27:49 PM 40.6333 -74.2000 21° North 147 169 1,000 -750 Descending New York TRACON
Sat 04:28:49 PM 40.6667 -74.1833 21° North 124 143 300 -700 Descending New York TRACON
Sat 04:30:00 PM 40.6833 -74.1667 21° North  Level FlightAware Approximate

Login

Don't have an account? Register now (free) for customized features, flight alerts, and more!